Time;durP1;ratioP1;P1;durP2;ratioP2;P2;SDS_P1;SDS_P2;PMS_P1;PMS_P2;Temp;Humidity;BMP_temperature;BMP_pressure;BME280_temperature;BME280_humidity;BME280_pressure;Samples;Min_cycle;Max_cycle;Signal;HPM_P1;HPM_P2
2022/01/03 00:01:45;;;;;;;1.85;1.00;;;21.70;43.10;;;;;;5055865;28;20071;-53
2022/01/03 00:04:14;;;;;;;3.03;1.15;;;21.70;43.10;;;;;;5045666;28;20029;-50
2022/01/03 00:06:40;;;;;;;3.33;1.17;;;21.70;43.10;;;;;;5056774;28;20062;-49
2022/01/03 00:09:07;;;;;;;3.70;1.13;;;21.70;43.10;;;;;;5055868;28;20056;-50
2022/01/03 00:11:33;;;;;;;3.13;1.20;;;21.70;43.10;;;;;;5055533;28;20028;-49
2022/01/03 00:13:59;;;;;;;2.63;1.10;;;21.70;43.10;;;;;;5055832;28;20126;-49
2022/01/03 00:16:25;;;;;;;3.50;1.10;;;21.70;43.10;;;;;;5054640;28;20036;-52
2022/01/03 00:18:53;;;;;;;3.92;1.05;;;21.70;43.10;;;;;;5055673;28;20133;-51
2022/01/03 00:21:20;;;;;;;4.03;1.42;;;21.60;43.00;;;;;;5055493;28;20044;-52
2022/01/03 00:23:56;;;;;;;4.05;1.20;;;21.70;43.10;;;;;;5054872;28;20025;-51
2022/01/03 00:26:26;;;;;;;3.40;1.38;;;21.70;43.00;;;;;;5055409;28;20396;-48
2022/01/03 00:29:04;;;;;;;4.10;1.15;;;21.60;42.90;;;;;;5038043;28;20020;-50
2022/01/03 00:31:38;;;;;;;3.40;1.40;;;21.70;42.90;;;;;;5056662;28;20009;-50
2022/01/03 00:34:07;;;;;;;3.45;1.25;;;21.60;42.90;;;;;;5036861;28;20107;-52
2022/01/03 00:36:33;;;;;;;2.15;0.98;;;21.60;43.00;;;;;;5042754;28;20037;-49
2022/01/03 00:38:59;;;;;;;2.38;1.10;;;21.60;43.00;;;;;;5055290;28;20099;-48
2022/01/03 00:41:25;;;;;;;3.22;1.40;;;21.60;42.90;;;;;;5042850;28;20017;-53
2022/01/03 00:43:53;;;;;;;4.00;1.23;;;21.60;42.90;;;;;;5021425;28;20124;-53
2022/01/03 00:46:19;;;;;;;3.60;1.05;;;21.60;42.90;;;;;;5037855;28;20428;-49
2022/01/03 00:48:45;;;;;;;2.72;1.17;;;21.60;42.90;;;;;;5037835;28;20033;-49
2022/01/03 00:51:19;;;;;;;3.08;1.15;;;21.60;42.90;;;;;;5055292;28;20029;-55
2022/01/03 00:53:49;;;;;;;5.45;1.40;;;21.60;42.90;;;;;;5055059;28;20059;-55
2022/01/03 00:56:29;;;;;;;5.35;1.38;;;21.60;42.90;;;;;;5053949;28;20040;-50
2022/01/03 00:59:06;;;;;;;2.88;1.10;;;21.60;42.80;;;;;;5040384;28;20321;-54
2022/01/03 01:01:36;;;;;;;4.45;1.58;;;21.60;43.50;;;;;;5054746;28;20116;-50
2022/01/03 01:04:02;;;;;;;4.90;1.33;;;21.50;42.80;;;;;;5037516;28;20082;-53
2022/01/03 01:06:34;;;;;;;5.10;1.50;;;21.50;42.90;;;;;;5046339;28;20060;-53
2022/01/03 01:09:03;;;;;;;5.00;1.90;;;21.50;42.80;;;;;;5037351;28;20036;-52
2022/01/03 01:11:30;;;;;;;3.95;1.60;;;21.50;42.80;;;;;;5040993;28;20036;-50
2022/01/03 01:13:57;;;;;;;3.38;1.20;;;21.50;42.80;;;;;;5036523;28;20055;-54
2022/01/03 01:16:24;;;;;;;3.50;1.20;;;21.50;42.80;;;;;;5041270;28;20447;-54
2022/01/03 01:18:52;;;;;;;4.13;1.40;;;21.50;42.80;;;;;;5036897;28;20017;-49
2022/01/03 01:21:18;;;;;;;4.30;1.52;;;21.50;42.80;;;;;;5036483;28;20049;-51
2022/01/03 01:23:45;;;;;;;5.55;1.58;;;21.50;42.80;;;;;;5054963;28;20033;-54
2022/01/03 01:28:56;;;;;;;3.78;1.30;;;21.50;42.80;;;;;;5043474;28;20029;-52
2022/01/03 01:31:24;;;;;;;3.83;1.23;;;21.40;42.70;;;;;;5039825;28;20025;-50
2022/01/03 01:33:56;;;;;;;3.97;1.52;;;21.50;42.80;;;;;;5056991;28;20036;-52
2022/01/03 01:36:28;;;;;;;3.63;1.25;;;21.50;42.80;;;;;;5048678;28;20029;-51
2022/01/03 01:39:06;;;;;;;3.80;1.35;;;21.50;42.70;;;;;;5047979;28;20103;-53
2022/01/03 01:41:37;;;;;;;2.38;1.02;;;21.40;42.70;;;;;;5046895;28;20013;-51
2022/01/03 01:44:07;;;;;;;3.90;1.23;;;21.40;42.70;;;;;;5037446;28;20431;-53
2022/01/03 01:46:34;;;;;;;3.55;1.48;;;21.40;42.60;;;;;;5058733;28;20348;-51
2022/01/03 01:49:06;;;;;;;5.57;1.75;;;21.40;42.60;;;;;;5040120;28;20025;-50
2022/01/03 01:51:36;;;;;;;6.13;1.63;;;21.40;42.60;;;;;;5047987;28;20094;-47
2022/01/03 01:54:05;;;;;;;3.40;1.13;;;21.40;42.60;;;;;;5059709;28;20036;-49
2022/01/03 01:56:57;;;;;;;4.72;1.48;;;21.40;42.80;;;;;;5048398;28;20032;-51
2022/01/03 01:59:53;;;;;;;3.58;1.33;;;21.40;42.50;;;;;;5056450;28;20410;-51
2022/01/03 02:02:56;;;;;;;3.47;1.25;;;21.40;42.50;;;;;;5050541;28;20032;-49
2022/01/03 02:05:35;;;;;;;4.30;1.63;;;21.40;42.50;;;;;;5048923;28;20444;-51
2022/01/03 02:08:13;;;;;;;4.70;1.52;;;21.40;42.60;;;;;;5053173;28;20021;-50
2022/01/03 02:10:50;;;;;;;4.50;1.27;;;21.40;42.60;;;;;;5039832;28;20519;-54
2022/01/03 02:13:21;;;;;;;3.72;1.25;;;21.40;42.60;;;;;;5037461;28;20029;-48
2022/01/03 02:15:56;;;;;;;3.97;1.25;;;21.30;42.60;;;;;;5036060;28;20021;-53
2022/01/03 02:18:24;;;;;;;4.43;1.50;;;21.40;42.60;;;;;;5039982;28;20041;-50
2022/01/03 02:20:50;;;;;;;2.78;1.15;;;21.30;42.50;;;;;;5057787;28;20060;-49
2022/01/03 02:23:16;;;;;;;3.55;1.45;;;21.30;42.50;;;;;;5039439;28;20059;-46
2022/01/03 02:25:43;;;;;;;4.68;1.50;;;21.30;42.50;;;;;;5041517;28;20032;-53
2022/01/03 02:28:09;;;;;;;3.47;1.48;;;21.30;42.50;;;;;;5059422;28;20325;-48
2022/01/03 02:30:35;;;;;;;5.70;1.58;;;21.30;42.50;;;;;;5062657;28;20025;-53
2022/01/03 02:33:03;;;;;;;3.08;1.27;;;21.30;42.50;;;;;;5040157;28;20119;-52
2022/01/03 02:35:29;;;;;;;5.95;1.73;;;21.30;42.50;;;;;;5040461;28;20071;-47
2022/01/03 02:37:55;;;;;;;5.43;1.65;;;21.30;42.50;;;;;;5057262;28;20360;-56
2022/01/03 02:40:22;;;;;;;4.07;1.35;;;21.30;42.40;;;;;;5049227;28;20478;-52
2022/01/03 02:42:51;;;;;;;4.20;1.52;;;21.30;42.40;;;;;;5039705;28;20032;-49
2022/01/03 02:45:21;;;;;;;3.90;1.52;;;21.30;42.40;;;;;;5050274;28;20024;-53
2022/01/03 02:47:51;;;;;;;6.40;1.95;;;21.30;42.40;;;;;;5056961;28;20033;-52
2022/01/03 02:50:18;;;;;;;4.18;2.00;;;21.30;42.50;;;;;;5062809;28;20313;-52
2022/01/03 02:52:44;;;;;;;5.22;1.85;;;21.30;42.50;;;;;;5064190;28;20039;-53
2022/01/03 02:55:12;;;;;;;4.13;1.70;;;21.30;42.50;;;;;;5041447;28;20130;-53
2022/01/03 02:57:41;;;;;;;3.70;1.50;;;21.30;42.60;;;;;;5038654;28;20447;-53
2022/01/03 03:00:11;;;;;;;4.68;1.55;;;21.30;42.60;;;;;;5057979;28;20056;-52
2022/01/03 03:02:37;;;;;;;4.30;1.52;;;21.30;42.60;;;;;;5056381;28;20033;-51
2022/01/03 03:05:06;;;;;;;3.70;1.30;;;21.30;42.60;;;;;;5039695;28;20021;-54
2022/01/03 03:07:33;;;;;;;3.75;1.30;;;21.30;42.50;;;;;;5043792;28;20033;-49
2022/01/03 03:10:03;;;;;;;4.30;1.58;;;21.30;43.10;;;;;;5057089;28;20029;-48
2022/01/03 03:12:29;;;;;;;4.93;1.40;;;21.30;42.50;;;;;;5039137;28;20028;-49
2022/01/03 03:14:55;;;;;;;4.03;1.67;;;21.30;42.50;;;;;;5043012;28;20340;-49
2022/01/03 03:17:21;;;;;;;4.45;1.80;;;21.20;42.40;;;;;;5038654;28;20040;-50
2022/01/03 03:19:59;;;;;;;3.53;1.35;;;21.20;42.50;;;;;;5044510;28;20454;-49
2022/01/03 03:22:28;;;;;;;4.25;1.73;;;21.30;42.50;;;;;;5032788;28;20032;-49
2022/01/03 03:25:06;;;;;;;4.50;1.33;;;21.20;42.40;;;;;;5039471;28;20016;-46
2022/01/03 03:27:34;;;;;;;3.08;1.38;;;21.20;42.40;;;;;;5038807;28;20344;-52
2022/01/03 03:30:00;;;;;;;4.75;1.70;;;21.20;42.40;;;;;;5046848;28;20309;-49
2022/01/03 03:32:27;;;;;;;5.18;1.55;;;21.20;42.40;;;;;;5041812;28;20049;-50
2022/01/03 03:34:53;;;;;;;4.43;1.58;;;21.20;42.40;;;;;;5040320;28;20071;-52
2022/01/03 03:37:20;;;;;;;4.43;1.50;;;21.20;42.40;;;;;;5042110;28;20037;-50
2022/01/03 03:39:48;;;;;;;2.67;1.15;;;21.20;42.40;;;;;;5040319;28;20029;-48
2022/01/03 03:42:16;;;;;;;4.22;1.52;;;21.20;42.40;;;;;;5038798;28;20509;-53
2022/01/03 03:44:42;;;;;;;2.83;1.02;;;21.20;42.40;;;;;;5039560;28;20021;-50
2022/01/03 03:47:08;;;;;;;5.32;1.58;;;21.20;42.30;;;;;;5038669;28;20091;-47
2022/01/03 03:49:35;;;;;;;3.70;1.17;;;21.20;42.30;;;;;;5040086;28;20036;-51
2022/01/03 03:52:02;;;;;;;3.78;1.35;;;21.20;42.30;;;;;;5045647;28;20089;-50
2022/01/03 03:54:30;;;;;;;4.57;1.50;;;21.20;42.30;;;;;;5041513;28;20060;-47
2022/01/03 03:56:57;;;;;;;3.65;1.40;;;21.20;42.40;;;;;;5049318;28;20458;-48
2022/01/03 03:59:26;;;;;;;5.32;1.98;;;21.20;42.40;;;;;;5045102;28;20059;-50
2022/01/03 04:01:53;;;;;;;4.60;1.40;;;21.20;42.30;;;;;;5047226;28;20099;-54
2022/01/03 04:04:19;;;;;;;4.07;1.33;;;21.20;42.40;;;;;;5066324;28;20037;-46
2022/01/03 04:06:45;;;;;;;5.15;1.52;;;21.20;42.30;;;;;;5051042;28;20025;-50
2022/01/03 04:09:11;;;;;;;5.30;1.48;;;21.20;42.30;;;;;;5038968;28;20028;-52
2022/01/03 04:11:37;;;;;;;4.18;1.48;;;21.20;42.40;;;;;;5037926;28;20029;-49
2022/01/03 04:14:05;;;;;;;3.85;1.35;;;21.20;42.30;;;;;;5055527;28;20036;-46
2022/01/03 04:16:31;;;;;;;3.33;1.30;;;21.10;42.30;;;;;;5057269;28;20062;-46
2022/01/03 04:18:57;;;;;;;4.10;1.70;;;21.10;42.30;;;;;;5056916;28;20024;-47
2022/01/03 04:21:22;;;;;;;4.22;1.45;;;21.10;42.30;;;;;;5073815;28;20110;-50
2022/01/03 04:23:48;;;;;;;3.90;1.50;;;21.10;42.30;;;;;;5042708;28;20052;-53
2022/01/03 04:26:14;;;;;;;4.82;1.50;;;21.10;42.30;;;;;;5035345;28;20016;-48
2022/01/03 04:28:40;;;;;;;4.30;1.60;;;21.10;42.30;;;;;;5061527;28;20021;-53
2022/01/03 04:31:07;;;;;;;4.47;1.45;;;21.20;42.30;;;;;;5054042;28;20133;-50
2022/01/03 04:33:33;;;;;;;3.63;1.27;;;21.10;42.20;;;;;;5044536;28;20032;-50
2022/01/03 04:35:59;;;;;;;4.72;1.70;;;21.10;42.20;;;;;;5034284;28;20036;-50
2022/01/03 04:38:26;;;;;;;4.53;1.50;;;21.10;42.20;;;;;;5036876;28;20170;-48
2022/01/03 04:40:55;;;;;;;5.50;1.65;;;21.10;42.20;;;;;;5069432;28;20439;-49
2022/01/03 04:43:21;;;;;;;3.25;1.25;;;21.10;42.20;;;;;;5038532;28;20074;-48
2022/01/03 04:45:47;;;;;;;2.90;1.08;;;21.10;42.20;;;;;;5051910;28;20029;-48
2022/01/03 04:48:13;;;;;;;4.32;1.65;;;21.10;42.20;;;;;;5056834;28;20124;-51
2022/01/03 04:50:39;;;;;;;3.10;1.30;;;21.10;42.20;;;;;;5037833;28;20353;-52
2022/01/03 04:53:05;;;;;;;3.75;1.35;;;21.10;42.20;;;;;;5037320;28;20385;-50
2022/01/03 04:55:30;;;;;;;2.88;1.25;;;21.10;42.20;;;;;;5049577;28;20106;-52
2022/01/03 04:57:56;;;;;;;2.95;1.33;;;21.10;42.20;;;;;;5060122;28;20037;-49
2022/01/03 05:00:23;;;;;;;5.18;1.67;;;21.10;42.30;;;;;;5042793;28;20017;-51
2022/01/03 05:02:49;;;;;;;3.47;1.50;;;21.10;42.20;;;;;;5037358;28;20033;-54
2022/01/03 05:05:15;;;;;;;3.40;1.30;;;21.10;42.30;;;;;;5054144;28;20452;-52
2022/01/03 05:07:41;;;;;;;3.70;1.10;;;21.00;42.20;;;;;;5050919;28;20028;-50
2022/01/03 05:10:09;;;;;;;4.85;1.40;;;21.10;42.30;;;;;;5047149;28;20530;-47
2022/01/03 05:12:35;;;;;;;5.20;1.38;;;21.00;42.20;;;;;;5036756;28;20355;-47
2022/01/03 05:15:01;;;;;;;4.38;1.60;;;21.00;42.30;;;;;;5055090;28;20020;-51
2022/01/03 05:17:29;;;;;;;3.30;1.10;;;21.00;42.30;;;;;;5037174;28;20036;-50
2022/01/03 05:19:55;;;;;;;3.63;1.23;;;21.10;42.30;;;;;;5054278;28;20020;-49
2022/01/03 05:22:21;;;;;;;5.38;1.60;;;21.00;42.30;;;;;;5037765;28;20490;-48
2022/01/03 05:24:47;;;;;;;5.20;1.70;;;21.00;42.30;;;;;;5072236;28;20021;-47
2022/01/03 05:27:13;;;;;;;4.35;1.35;;;21.00;42.20;;;;;;5056642;28;20043;-47
2022/01/03 05:29:39;;;;;;;3.80;1.23;;;21.00;42.20;;;;;;5041634;28;20028;-48
2022/01/03 05:32:05;;;;;;;5.03;1.52;;;21.00;42.20;;;;;;5054974;28;20021;-47
2022/01/03 05:34:30;;;;;;;4.38;1.45;;;21.00;42.90;;;;;;5036998;28;20017;-47
2022/01/03 05:36:56;;;;;;;4.63;1.40;;;21.00;42.30;;;;;;5035836;28;20108;-48
2022/01/03 05:39:22;;;;;;;6.07;1.88;;;21.00;42.20;;;;;;5037299;28;20025;-49
2022/01/03 05:41:48;;;;;;;3.78;1.40;;;21.00;42.20;;;;;;5045256;28;20021;-52
2022/01/03 05:44:14;;;;;;;4.03;1.30;;;21.00;42.30;;;;;;5056744;28;20431;-50
2022/01/03 05:46:40;;;;;;;4.90;1.70;;;21.00;42.30;;;;;;5037425;28;20033;-48
2022/01/03 05:49:07;;;;;;;3.72;1.20;;;21.00;42.90;;;;;;5042493;28;20416;-49
2022/01/03 05:51:34;;;;;;;3.53;1.40;;;21.00;42.30;;;;;;5036546;28;20025;-51
2022/01/03 05:54:00;;;;;;;3.33;1.52;;;21.00;42.30;;;;;;5042712;28;20021;-47
2022/01/03 05:56:26;;;;;;;4.63;1.48;;;21.00;42.30;;;;;;5036661;28;20351;-48
2022/01/03 05:58:52;;;;;;;4.63;1.73;;;21.00;42.30;;;;;;5039888;28;20066;-46
2022/01/03 06:01:21;;;;;;;5.32;1.45;;;21.00;42.30;;;;;;5036650;28;20025;-48
2022/01/03 06:03:47;;;;;;;4.57;1.50;;;21.00;42.30;;;;;;5037017;28;20459;-53
2022/01/03 06:08:39;;;;;;;4.57;1.80;;;21.00;42.30;;;;;;5035734;28;20068;-52
2022/01/03 06:11:06;;;;;;;5.45;1.70;;;21.00;42.30;;;;;;5036217;28;20021;-51
2022/01/03 06:13:33;;;;;;;4.07;1.50;;;21.00;42.30;;;;;;5056822;28;20086;-53
2022/01/03 06:15:59;;;;;;;4.75;1.33;;;21.00;42.40;;;;;;5037292;28;20413;-47
2022/01/03 06:18:27;;;;;;;4.88;1.75;;;21.00;42.30;;;;;;5036481;28;20060;-52
2022/01/03 06:20:58;;;;;;;4.75;1.70;;;21.00;42.30;;;;;;5036491;28;20036;-52
2022/01/03 06:23:28;;;;;;;4.35;1.77;;;21.00;42.40;;;;;;5037014;28;20017;-48
2022/01/03 06:25:55;;;;;;;4.53;1.60;;;21.00;42.40;;;;;;5036470;28;20029;-51
2022/01/03 06:28:35;;;;;;;5.07;1.75;;;21.00;42.40;;;;;;5035922;28;20064;-49
2022/01/03 06:31:01;;;;;;;3.88;1.30;;;20.90;42.30;;;;;;5036074;28;20017;-54
2022/01/03 06:33:27;;;;;;;4.68;1.50;;;20.90;42.30;;;;;;5033242;28;20365;-51
2022/01/03 06:35:53;;;;;;;5.07;1.70;;;20.90;42.30;;;;;;5040078;28;20033;-54
2022/01/03 06:38:19;;;;;;;4.93;1.88;;;20.90;42.30;;;;;;5033668;28;20116;-48
2022/01/03 06:40:44;;;;;;;4.50;1.38;;;20.90;42.30;;;;;;5040672;28;20036;-49
2022/01/03 06:43:10;;;;;;;4.10;1.50;;;20.90;42.30;;;;;;5039744;28;20089;-52
2022/01/03 06:45:36;;;;;;;3.60;1.30;;;20.90;42.30;;;;;;5051513;28;20021;-45
2022/01/03 06:48:02;;;;;;;4.90;1.40;;;20.90;42.20;;;;;;5048261;28;20493;-48
2022/01/03 06:50:34;;;;;;;3.90;1.35;;;20.90;42.20;;;;;;5059275;28;20103;-49
2022/01/03 06:53:00;;;;;;;6.22;1.60;;;20.90;42.20;;;;;;5028546;28;20094;-52
2022/01/03 06:55:27;;;;;;;3.85;1.60;;;20.90;42.20;;;;;;5056437;28;20151;-52
2022/01/03 06:57:53;;;;;;;3.03;1.15;;;20.90;42.20;;;;;;5042737;28;20474;-51
2022/01/03 07:00:19;;;;;;;4.95;1.48;;;20.90;42.20;;;;;;5039691;28;20020;-49
2022/01/03 07:02:46;;;;;;;5.68;1.70;;;20.90;42.20;;;;;;5038949;28;20017;-52
2022/01/03 07:05:13;;;;;;;3.58;1.42;;;20.90;42.20;;;;;;5055486;28;20044;-49
2022/01/03 07:07:39;;;;;;;5.05;1.70;;;20.90;42.20;;;;;;5057107;28;20035;-52
2022/01/03 07:10:06;;;;;;;4.35;1.73;;;20.90;42.20;;;;;;5071613;28;20123;-49
2022/01/03 07:12:33;;;;;;;4.65;1.38;;;20.90;42.20;;;;;;5065047;28;20029;-51
2022/01/03 07:20:10;;;;;;;3.85;1.35;;;20.90;42.20;;;;;;5071195;28;20029;-51
2022/01/03 07:22:40;;;;;;;4.18;1.83;;;20.80;42.20;;;;;;5067849;28;20099;-52
2022/01/03 07:25:09;;;;;;;2.58;1.10;;;20.90;42.20;;;;;;5067197;28;20040;-49
2022/01/03 07:27:37;;;;;;;3.90;1.30;;;20.90;42.20;;;;;;5069651;28;20033;-54
2022/01/03 07:30:04;;;;;;;2.63;1.10;;;20.90;42.20;;;;;;5039557;28;20086;-48
2022/01/03 07:32:30;;;;;;;5.15;1.38;;;20.90;42.20;;;;;;5058245;28;20048;-53
2022/01/03 07:34:56;;;;;;;2.92;1.13;;;20.80;42.20;;;;;;5056067;28;20063;-52
2022/01/03 07:37:22;;;;;;;3.30;1.25;;;20.90;42.20;;;;;;5056219;28;20097;-46
2022/01/03 07:39:48;;;;;;;4.35;1.58;;;20.80;42.20;;;;;;5039737;28;20452;-50
2022/01/03 07:42:14;;;;;;;3.25;1.23;;;20.80;42.20;;;;;;5055941;28;20025;-53
2022/01/03 07:44:45;;;;;;;5.07;1.30;;;20.80;42.20;;;;;;5039953;28;20079;-52
2022/01/03 07:47:11;;;;;;;3.17;1.30;;;20.80;42.20;;;;;;5056661;28;20028;-50
2022/01/03 07:49:36;;;;;;;4.80;1.60;;;20.80;42.20;;;;;;5055944;28;20075;-54
2022/01/03 07:52:02;;;;;;;3.35;1.27;;;20.80;42.20;;;;;;5054776;28;20512;-54
2022/01/03 07:54:28;;;;;;;4.55;1.50;;;20.90;42.30;;;;;;5054439;28;20041;-55
2022/01/03 07:56:54;;;;;;;5.18;1.60;;;20.90;42.30;;;;;;5054888;28;20036;-53
2022/01/03 07:59:27;;;;;;;4.13;1.55;;;20.90;42.40;;;;;;5038671;28;20036;-54
2022/01/03 08:01:55;;;;;;;3.85;1.38;;;21.00;42.40;;;;;;5063359;28;20454;-54
2022/01/03 08:04:21;;;;;;;3.97;1.35;;;21.10;42.40;;;;;;5065985;28;20036;-55
2022/01/03 08:06:47;;;;;;;2.40;0.90;;;21.10;42.20;;;;;;5065141;28;20032;-52
2022/01/03 08:09:12;;;;;;;2.75;1.10;;;21.10;42.20;;;;;;5056052;28;20033;-54
2022/01/03 08:11:38;;;;;;;3.95;1.58;;;21.20;42.10;;;;;;5053441;28;20029;-47
2022/01/03 08:14:04;;;;;;;3.67;1.30;;;21.20;42.00;;;;;;5054192;28;20102;-53
2022/01/03 08:16:30;;;;;;;3.55;1.15;;;21.20;42.00;;;;;;5053301;28;20052;-54
2022/01/03 08:18:55;;;;;;;4.22;1.77;;;21.30;42.10;;;;;;5054799;28;20106;-54
2022/01/03 08:21:21;;;;;;;3.33;1.38;;;21.40;42.10;;;;;;5054244;28;20063;-55
2022/01/03 08:23:47;;;;;;;3.70;1.48;;;21.40;42.10;;;;;;5054658;28;20021;-55
2022/01/03 08:26:13;;;;;;;3.63;1.38;;;21.50;42.00;;;;;;5054741;28;20114;-54
2022/01/03 08:28:38;;;;;;;4.25;1.35;;;21.60;41.80;;;;;;5057385;28;20340;-54
2022/01/03 08:31:04;;;;;;;3.85;1.48;;;21.70;41.70;;;;;;5063943;28;20025;-54
2022/01/03 08:33:30;;;;;;;3.42;1.23;;;21.80;41.60;;;;;;5046349;28;20055;-54
2022/01/03 08:35:57;;;;;;;4.20;1.48;;;21.90;41.40;;;;;;5053814;28;20033;-50
2022/01/03 08:38:25;;;;;;;5.75;1.30;;;21.90;41.30;;;;;;5055403;28;20128;-50
2022/01/03 08:40:51;;;;;;;5.32;1.52;;;22.00;41.10;;;;;;5059048;28;20455;-53
2022/01/03 08:43:17;;;;;;;4.43;1.50;;;22.10;41.10;;;;;;5061250;28;20301;-50
2022/01/03 08:45:42;;;;;;;3.58;1.52;;;22.20;41.00;;;;;;5052765;28;20113;-50
2022/01/03 08:48:08;;;;;;;2.63;1.05;;;22.20;40.90;;;;;;5055027;28;20025;-52
2022/01/03 08:50:34;;;;;;;4.40;1.23;;;22.30;40.70;;;;;;5055092;28;20029;-49
2022/01/03 08:53:01;;;;;;;4.47;1.40;;;22.40;40.60;;;;;;5056154;28;20021;-55
2022/01/03 08:55:27;;;;;;;5.50;1.85;;;22.40;40.50;;;;;;5058488;28;20128;-51
2022/01/03 08:57:55;;;;;;;5.93;1.63;;;22.50;40.40;;;;;;5064702;28;20124;-52
2022/01/03 09:00:21;;;;;;;4.75;0.90;;;22.60;40.20;;;;;;5062207;28;20040;-55
2022/01/03 09:02:46;;;;;;;4.35;1.50;;;22.60;40.10;;;;;;5062402;28;20081;-51
2022/01/03 09:05:12;;;;;;;4.70;1.63;;;22.70;40.00;;;;;;5057810;28;20301;-55
2022/01/03 09:07:38;;;;;;;2.00;1.02;;;22.70;39.90;;;;;;5066583;28;20024;-54
2022/01/03 09:10:05;;;;;;;2.40;1.02;;;22.80;40.00;;;;;;5059115;28;20727;-57
2022/01/03 09:12:31;;;;;;;1.92;0.85;;;22.80;40.10;;;;;;5053116;28;20020;-64
2022/01/03 09:14:58;;;;;;;3.10;0.90;;;22.80;40.20;;;;;;5041794;28;20044;-58
2022/01/03 09:17:25;;;;;;;2.08;0.80;;;22.70;40.30;;;;;;5055994;28;20452;-52
2022/01/03 09:19:52;;;;;;;3.17;1.05;;;22.70;40.50;;;;;;5063693;28;20025;-52
2022/01/03 09:22:23;;;;;;;3.90;1.02;;;22.70;40.40;;;;;;5064761;28;20054;-53
2022/01/03 09:30:13;;;;;;;3.70;0.90;;;22.80;40.10;;;;;;5052442;28;20158;-55
2022/01/03 09:32:39;;;;;;;3.88;1.27;;;22.90;40.00;;;;;;5074118;28;20024;-51
2022/01/03 09:35:07;;;;;;;3.63;1.27;;;22.90;39.80;;;;;;5072787;28;20054;-55
2022/01/03 09:37:36;;;;;;;3.95;1.40;;;22.90;39.70;;;;;;5040983;28;20429;-53
2022/01/03 09:40:05;;;;;;;3.65;1.27;;;23.00;39.60;;;;;;5065181;28;20382;-53
2022/01/03 09:42:33;;;;;;;2.50;1.05;;;23.00;39.50;;;;;;5072889;28;20036;-49
2022/01/03 09:45:03;;;;;;;4.00;1.20;;;23.10;39.40;;;;;;5075683;28;20028;-53
2022/01/03 09:47:31;;;;;;;3.53;1.20;;;23.20;39.40;;;;;;5055202;28;20017;-54
2022/01/03 09:49:59;;;;;;;3.67;1.30;;;23.20;39.30;;;;;;5072318;28;20029;-52
2022/01/03 09:52:25;;;;;;;3.10;1.30;;;23.30;39.20;;;;;;5061442;28;20021;-51
2022/01/03 09:54:54;;;;;;;2.83;1.40;;;23.30;39.10;;;;;;5058561;28;20063;-52
2022/01/03 09:57:21;;;;;;;4.80;1.83;;;23.30;39.00;;;;;;5054502;28;20094;-51
2022/01/03 09:59:47;;;;;;;2.88;1.10;;;23.40;39.00;;;;;;5059199;28;20036;-54
2022/01/03 10:02:15;;;;;;;2.15;0.88;;;23.40;38.80;;;;;;5059330;28;20032;-52
2022/01/03 10:04:41;;;;;;;3.38;1.30;;;23.40;38.80;;;;;;5055490;28;20020;-52
2022/01/03 10:07:09;;;;;;;3.50;1.40;;;23.50;38.70;;;;;;5067160;28;20039;-48
2022/01/03 10:09:37;;;;;;;3.00;1.20;;;23.50;38.60;;;;;;5061174;28;20020;-51
2022/01/03 10:12:03;;;;;;;3.92;1.23;;;23.60;38.60;;;;;;5066910;28;20038;-52
2022/01/03 10:14:29;;;;;;;2.67;1.15;;;23.60;38.50;;;;;;5075395;28;20167;-50
2022/01/03 10:16:54;;;;;;;3.05;1.20;;;23.60;38.50;;;;;;5077932;28;20503;-55
2022/01/03 10:19:20;;;;;;;3.80;1.30;;;23.60;38.40;;;;;;5076184;28;20113;-51
2022/01/03 10:21:48;;;;;;;2.70;1.10;;;23.70;38.40;;;;;;5077847;28;20060;-50
2022/01/03 10:24:16;;;;;;;4.22;1.10;;;23.70;38.30;;;;;;5073038;28;20024;-48
2022/01/03 10:26:50;;;;;;;2.80;1.13;;;23.70;38.30;;;;;;5061253;28;20094;-51
2022/01/03 10:29:21;;;;;;;3.40;1.42;;;23.80;38.30;;;;;;5076878;28;20032;-50
2022/01/03 10:31:50;;;;;;;3.45;1.23;;;23.70;38.20;;;;;;5060670;28;20032;-52
2022/01/03 10:34:18;;;;;;;3.97;1.48;;;23.80;38.20;;;;;;5056461;28;20112;-53
2022/01/03 10:36:47;;;;;;;3.90;1.40;;;23.80;38.30;;;;;;5058882;28;20033;-56
2022/01/03 10:39:24;;;;;;;3.83;1.63;;;23.70;38.90;;;;;;5057543;28;20020;-55
2022/01/03 10:42:11;;;;;;;3.03;1.20;;;23.70;38.40;;;;;;5057896;28;20056;-54
2022/01/03 10:44:40;;;;;;;6.05;1.50;;;23.70;38.40;;;;;;5055599;28;20174;-51
2022/01/03 10:47:08;;;;;;;3.78;1.02;;;23.70;38.40;;;;;;5058467;28;20024;-50
2022/01/03 10:49:38;;;;;;;3.70;1.58;;;23.70;38.40;;;;;;5058713;28;20420;-53
2022/01/03 10:52:28;;;;;;;3.28;1.27;;;23.60;38.30;;;;;;5040980;28;20032;-48
2022/01/03 10:55:21;;;;;;;3.83;1.55;;;23.60;38.30;;;;;;5056345;28;20127;-53
2022/01/03 10:57:59;;;;;;;3.10;0.98;;;23.60;38.30;;;;;;5071796;28;20048;-50
2022/01/03 11:00:30;;;;;;;3.15;1.25;;;23.60;38.30;;;;;;5054973;28;20087;-53
2022/01/03 11:03:21;;;;;;;4.13;1.25;;;23.60;38.30;;;;;;5067516;28;20399;-50
2022/01/03 11:06:02;;;;;;;4.45;1.63;;;23.60;38.30;;;;;;5060274;28;20037;-53
2022/01/03 11:11:15;;;;;;;4.03;1.42;;;23.50;38.30;;;;;;5062787;28;20037;-51
2022/01/03 11:13:43;;;;;;;3.85;1.48;;;23.50;38.20;;;;;;5056663;28;20037;-50
2022/01/03 11:16:11;;;;;;;4.93;1.85;;;23.50;38.10;;;;;;5055961;28;20017;-52
2022/01/03 11:18:45;;;;;;;5.90;1.65;;;23.50;38.10;;;;;;5056648;28;20032;-54
2022/01/03 11:21:16;;;;;;;4.53;1.40;;;23.50;38.00;;;;;;5054496;28;20120;-55
2022/01/03 11:23:49;;;;;;;3.55;1.38;;;23.50;38.10;;;;;;5055785;28;20028;-51
2022/01/03 11:26:20;;;;;;;2.35;1.02;;;23.50;38.20;;;;;;5054399;28;20442;-55
2022/01/03 11:28:48;;;;;;;3.08;1.20;;;23.50;38.30;;;;;;5051596;28;20020;-54
2022/01/03 11:31:17;;;;;;;3.28;1.30;;;23.40;38.30;;;;;;5058851;28;20032;-53
2022/01/03 11:33:46;;;;;;;5.57;1.55;;;23.40;38.40;;;;;;5066026;28;20348;-54
2022/01/03 11:36:12;;;;;;;4.47;1.88;;;23.40;38.40;;;;;;5061650;28;20021;-57
2022/01/03 11:38:40;;;;;;;3.55;1.45;;;23.40;38.30;;;;;;5061813;28;20040;-53
2022/01/03 11:41:09;;;;;;;4.55;1.42;;;23.40;38.40;;;;;;5064898;28;20452;-53
2022/01/03 11:43:36;;;;;;;3.70;1.45;;;23.40;38.40;;;;;;5062632;28;20044;-54
2022/01/03 11:46:03;;;;;;;3.25;1.17;;;23.40;38.40;;;;;;5064694;28;20052;-49
2022/01/03 11:48:29;;;;;;;5.15;1.40;;;23.40;38.40;;;;;;5055883;28;20040;-54
2022/01/03 11:51:02;;;;;;;4.30;1.50;;;23.40;38.40;;;;;;5055465;28;20029;-55
2022/01/03 11:53:33;;;;;;;3.53;1.30;;;23.40;38.30;;;;;;5053521;28;20024;-52
2022/01/03 11:56:03;;;;;;;2.17;1.00;;;23.40;38.40;;;;;;5055104;28;20044;-49
2022/01/03 11:59:05;;;;;;;2.85;1.10;;;23.40;38.40;;;;;;5054296;28;20033;-49
2022/01/03 12:04:30;;;;;;;4.00;1.45;;;23.40;38.40;;;;;;5054387;28;20020;-53
2022/01/03 12:07:10;;;;;;;2.70;1.13;;;23.40;38.40;;;;;;5049705;28;20032;-55
2022/01/03 12:09:38;;;;;;;3.65;1.23;;;23.40;38.40;;;;;;5055589;28;20021;-54
2022/01/03 12:12:06;;;;;;;3.42;1.30;;;23.40;38.40;;;;;;5055008;28;20032;-53
2022/01/03 12:14:44;;;;;;;4.15;1.38;;;23.40;38.50;;;;;;5055033;28;20040;-52
2022/01/03 12:17:12;;;;;;;2.45;1.13;;;23.50;38.50;;;;;;5054328;28;20167;-56
2022/01/03 12:19:42;;;;;;;3.17;1.02;;;23.50;38.60;;;;;;5052720;28;20069;-52
2022/01/03 12:22:15;;;;;;;3.10;1.17;;;23.50;38.80;;;;;;5053152;28;20029;-55
2022/01/03 12:25:02;;;;;;;3.40;1.30;;;23.50;39.10;;;;;;5051532;28;20024;-53
2022/01/03 12:27:31;;;;;;;3.25;1.20;;;23.50;39.50;;;;;;5052318;28;20116;-54
2022/01/03 12:29:56;;;;;;;2.72;1.30;;;23.50;39.80;;;;;;5053191;28;20021;-55
2022/01/03 12:32:26;;;;;;;5.75;1.83;;;23.50;40.10;;;;;;5034930;28;20024;-55
2022/01/03 12:35:15;;;;;;;3.95;1.33;;;23.50;40.90;;;;;;5052177;28;20420;-54
2022/01/03 12:37:53;;;;;;;3.65;1.48;;;23.50;40.50;;;;;;5051812;28;20060;-54
2022/01/03 12:40:27;;;;;;;1.95;1.02;;;23.60;40.70;;;;;;5052403;28;20440;-60
2022/01/03 12:42:55;;;;;;;3.22;1.20;;;23.60;40.70;;;;;;5051485;28;20047;-54
2022/01/03 12:45:29;;;;;;;4.75;1.40;;;23.60;40.70;;;;;;5051906;28;20029;-52
2022/01/03 12:48:15;;;;;;;;;;;23.70;40.80;;;;;;5053278;28;20025;-56
2022/01/03 12:50:53;;;;;;;3.15;1.13;;;23.70;40.80;;;;;;5050261;28;19991;-54
2022/01/03 12:53:27;;;;;;;4.85;1.48;;;23.70;40.90;;;;;;5052493;28;20356;-58
2022/01/03 12:56:04;;;;;;;2.95;1.20;;;23.80;40.80;;;;;;5053112;28;20139;-50
2022/01/03 12:58:32;;;;;;;3.45;1.20;;;23.80;41.40;;;;;;5030993;28;20166;-56
2022/01/03 13:01:14;;;;;;;4.03;1.60;;;23.90;40.80;;;;;;5052823;28;20033;-51
2022/01/03 13:03:39;;;;;;;3.53;1.33;;;23.90;40.60;;;;;;5051416;28;20033;-48
2022/01/03 13:06:18;;;;;;;3.83;1.48;;;23.90;40.70;;;;;;5052990;28;20086;-49
2022/01/03 13:08:47;;;;;;;3.72;1.30;;;23.90;40.60;;;;;;5032798;28;20435;-47
2022/01/03 13:11:23;;;;;;;3.20;1.33;;;23.90;40.60;;;;;;5050208;28;20043;-52
2022/01/03 13:14:01;;;;;;;3.50;0.93;;;23.90;40.50;;;;;;5050130;28;20049;-53
2022/01/03 13:16:28;;;;;;;3.25;0.88;;;23.90;40.40;;;;;;5049156;28;20028;-51
2022/01/03 13:19:00;;;;;;;3.67;1.38;;;24.00;40.20;;;;;;5051964;28;20037;-45